Time,TemperatureF,DewpointF,PressureIn,WindDirection,WindDirectionDegrees,WindSpeedMPH,WindSpeedGustMPH,Humidity,HourlyPrecipIn,Conditions,Clouds,dailyrainin,SoftwareType,DateUTC
2013-05-12 00:01:00,57.0,57.0,30.16,South,171,4.0,9.0,100,0.00,,,0.00,,2013-05-12 07:01:00,
2013-05-12 00:11:00,57.0,57.0,30.16,South,171,4.0,9.0,100,0.00,,,0.00,,2013-05-12 07:11:00,
2013-05-12 00:21:00,57.0,57.0,30.16,South,171,4.0,9.0,100,0.00,,,0.00,,2013-05-12 07:21:00,
2013-05-12 00:32:00,56.0,56.0,30.16,South,182,5.0,9.0,100,0.00,,,0.00,,2013-05-12 07:32:00,
2013-05-12 00:42:00,56.0,56.0,30.16,South,182,5.0,9.0,100,0.00,,,0.00,,2013-05-12 07:42:00,
2013-05-12 00:51:00,57.0,57.0,30.17,SE,131,3.0,5.0,100,0.00,,,0.00,,2013-05-12 07:51:00,
2013-05-12 01:02:00,57.0,57.0,30.17,SSE,158,3.0,5.0,100,0.00,,,0.00,,2013-05-12 08:02:00,
2013-05-12 01:11:00,57.0,57.0,30.17,SSE,158,3.0,5.0,100,0.00,,,0.00,,2013-05-12 08:11:00,
2013-05-12 01:21:00,57.0,57.0,30.17,ESE,119,3.0,6.0,100,0.00,,,0.00,,2013-05-12 08:21:00,
2013-05-12 01:32:00,58.0,58.0,30.17,SE,130,3.0,7.0,100,0.00,,,0.00,,2013-05-12 08:32:00,
2013-05-12 01:41:00,58.0,58.0,30.17,SE,130,3.0,7.0,100,0.00,,,0.00,,2013-05-12 08:41:00,
2013-05-12 01:52:00,58.0,58.0,30.17,ESE,113,4.0,5.0,100,0.00,,,0.00,,2013-05-12 08:52:00,
2013-05-12 02:01:00,58.0,58.0,30.17,SE,143,4.0,7.0,100,0.00,,,0.00,,2013-05-12 09:01:00,
2013-05-12 02:11:00,58.0,58.0,30.17,SE,143,4.0,7.0,100,0.00,,,0.00,,2013-05-12 09:11:00,
2013-05-12 02:21:00,58.0,58.0,30.17,SE,143,4.0,7.0,100,0.00,,,0.00,,2013-05-12 09:21:00,
2013-05-12 02:32:00,57.0,57.0,30.16,ESE,113,4.0,6.0,100,0.00,,,0.00,,2013-05-12 09:32:00,
2013-05-12 02:42:00,57.0,57.0,30.16,ESE,113,4.0,6.0,100,0.00,,,0.00,,2013-05-12 09:42:00,
2013-05-12 02:52:00,57.0,57.0,30.16,SE,132,4.0,7.0,100,0.00,,,0.00,,2013-05-12 09:52:00,
2013-05-12 03:02:00,57.0,57.0,30.16,SE,146,1.0,6.0,100,0.00,,,0.00,,2013-05-12 10:02:00,
2013-05-12 03:12:00,57.0,57.0,30.16,SE,146,1.0,6.0,100,0.00,,,0.00,,2013-05-12 10:12:00,
2013-05-12 03:22:00,58.0,58.0,30.16,South,170,3.0,6.0,100,0.00,,,0.00,,2013-05-12 10:22:00,
2013-05-12 03:33:00,57.0,57.0,30.15,SE,142,5.0,9.0,100,0.00,,,0.00,,2013-05-12 10:33:00,
2013-05-12 03:42:00,57.0,57.0,30.15,SE,142,5.0,9.0,100,0.00,,,0.00,,2013-05-12 10:42:00,
2013-05-12 03:52:00,58.0,58.0,30.16,SSE,163,3.0,9.0,100,0.00,,,0.00,,2013-05-12 10:52:00,
2013-05-12 04:02:00,58.0,58.0,30.16,SSE,161,5.0,9.0,100,0.00,,,0.00,,2013-05-12 11:02:00,
2013-05-12 04:12:00,58.0,58.0,30.16,SSE,161,5.0,9.0,100,0.00,,,0.00,,2013-05-12 11:12:00,
2013-05-12 04:21:00,58.0,58.0,30.16,SE,140,10.0,15.0,100,0.00,,,0.00,,2013-05-12 11:21:00,
2013-05-12 04:32:00,58.0,58.0,30.16,SSE,150,5.0,10.0,100,0.00,,,0.00,,2013-05-12 11:32:00,
2013-05-12 04:42:00,58.0,58.0,30.16,SSE,150,5.0,10.0,100,0.00,,,0.00,,2013-05-12 11:42:00,
2013-05-12 04:51:00,57.0,57.0,30.17,SSE,162,10.0,13.0,100,0.00,,,0.00,,2013-05-12 11:51:00,
2013-05-12 05:01:00,57.0,53.0,30.16,SSE,163,8.0,15.0,86,0.00,,,0.00,,2013-05-12 12:01:00,
2013-05-12 05:11:00,57.0,53.0,30.16,SSE,163,8.0,15.0,86,0.00,,,0.00,,2013-05-12 12:11:00,
2013-05-12 05:21:00,56.0,50.0,30.17,SSE,164,8.0,14.0,80,0.00,,,0.00,,2013-05-12 12:21:00,
2013-05-12 05:32:00,56.0,49.0,30.17,SSE,149,9.0,12.0,76,0.00,,,0.00,,2013-05-12 12:32:00,
2013-05-12 05:41:00,56.0,49.0,30.17,SSE,149,9.0,12.0,76,0.00,,,0.00,,2013-05-12 12:41:00,
2013-05-12 05:51:00,56.0,47.0,30.17,South,173,9.0,14.0,73,0.00,,,0.00,,2013-05-12 12:51:00,
2013-05-12 06:01:00,56.0,47.0,30.17,ESE,123,6.0,11.0,73,0.00,,,0.00,,2013-05-12 13:01:00,
2013-05-12 06:11:00,56.0,47.0,30.17,ESE,123,6.0,11.0,73,0.00,,,0.00,,2013-05-12 13:11:00,
2013-05-12 06:21:00,56.0,48.0,30.18,South,184,5.0,12.0,74,0.00,,,0.00,,2013-05-12 13:21:00,
2013-05-12 06:31:00,56.0,46.0,30.18,South,172,7.0,15.0,69,0.00,,,0.00,,2013-05-12 13:31:00,
2013-05-12 06:41:00,56.0,46.0,30.18,South,172,7.0,15.0,69,0.00,,,0.00,,2013-05-12 13:41:00,
2013-05-12 06:52:00,56.0,46.0,30.18,SSE,164,6.0,13.0,68,0.00,,,0.00,,2013-05-12 13:52:00,
2013-05-12 07:01:00,55.0,43.0,30.18,SSE,163,7.0,11.0,65,0.00,,,0.00,,2013-05-12 14:01:00,
2013-05-12 07:31:00,55.0,43.0,30.18,SSE,167,4.0,12.0,64,0.00,,,0.00,,2013-05-12 14:31:00,
2013-05-12 07:41:00,55.0,43.0,30.18,SSE,164,10.0,15.0,63,0.00,,,0.00,,2013-05-12 14:41:00,
2013-05-12 08:01:00,55.0,42.0,30.18,SSE,163,6.0,13.0,62,0.00,,,0.00,,2013-05-12 15:01:00,
2013-05-12 08:21:00,56.0,45.0,30.18,SE,143,7.0,10.0,67,0.00,,,0.00,,2013-05-12 15:21:00,
2013-05-12 08:33:00,57.0,50.0,30.18,SE,130,8.0,11.0,76,0.00,,,0.00,,2013-05-12 15:33:00,
2013-05-12 08:42:00,57.0,50.0,30.18,SE,130,8.0,11.0,76,0.00,,,0.00,,2013-05-12 15:42:00,
2013-05-12 08:52:00,58.0,54.0,30.18,SE,140,6.0,11.0,88,0.00,,,0.00,,2013-05-12 15:52:00,
2013-05-12 09:02:00,58.0,58.0,30.19,SE,128,4.0,9.0,100,0.00,,,0.00,,2013-05-12 16:02:00,
2013-05-12 09:12:00,58.0,58.0,30.19,SE,128,4.0,9.0,100,0.00,,,0.00,,2013-05-12 16:12:00,
2013-05-12 09:23:00,59.0,59.0,30.19,ESE,109,4.0,7.0,100,0.00,,,0.00,,2013-05-12 16:23:00,
2013-05-12 09:32:00,60.0,60.0,30.19,SE,136,5.0,13.0,100,0.00,,,0.00,,2013-05-12 16:32:00,
2013-05-12 09:42:00,60.0,60.0,30.19,SE,136,5.0,13.0,100,0.00,,,0.00,,2013-05-12 16:42:00,
2013-05-12 09:52:00,61.0,61.0,30.20,SSE,155,4.0,11.0,100,0.00,,,0.00,,2013-05-12 16:52:00,
2013-05-12 10:01:00,57.0,57.0,30.20,SSW,206,4.0,10.0,100,0.00,,,0.00,,2013-05-12 17:01:00,
2013-05-12 10:11:00,57.0,57.0,30.20,SSW,206,4.0,10.0,100,0.00,,,0.00,,2013-05-12 17:11:00,
2013-05-12 10:22:00,57.0,57.0,30.19,South,184,3.0,9.0,100,0.00,,,0.00,,2013-05-12 17:22:00,
2013-05-12 10:32:00,58.0,58.0,30.19,SSE,161,7.0,12.0,100,0.00,,,0.00,,2013-05-12 17:32:00,
2013-05-12 10:42:00,58.0,58.0,30.19,SSE,161,7.0,12.0,100,0.00,,,0.00,,2013-05-12 17:42:00,
2013-05-12 10:52:00,58.0,58.0,30.20,South,186,6.0,11.0,100,0.00,,,0.00,,2013-05-12 17:52:00,
2013-05-12 11:01:00,59.0,59.0,30.19,SSW,194,6.0,12.0,100,0.00,,,0.00,,2013-05-12 18:01:00,
2013-05-12 11:12:00,59.0,59.0,30.19,SSW,194,6.0,12.0,100,0.00,,,0.00,,2013-05-12 18:12:00,
2013-05-12 11:22:00,59.0,59.0,30.19,South,173,4.0,14.0,100,0.00,,,0.00,,2013-05-12 18:22:00,
2013-05-12 11:31:00,59.0,59.0,30.20,SE,144,6.0,11.0,100,0.00,,,0.00,,2013-05-12 18:31:00,
2013-05-12 11:41:00,59.0,59.0,30.20,SE,144,6.0,11.0,100,0.00,,,0.00,,2013-05-12 18:41:00,
2013-05-12 11:51:00,60.0,60.0,30.20,SSW,202,7.0,16.0,100,0.00,,,0.00,,2013-05-12 18:51:00,
2013-05-12 12:01:00,60.0,60.0,30.20,SSW,202,7.0,16.0,100,0.00,,,0.00,,2013-05-12 19:01:00,
2013-05-12 12:11:00,60.0,60.0,30.20,SSW,202,7.0,16.0,100,0.00,,,0.00,,2013-05-12 19:11:00,
2013-05-12 12:21:00,60.0,60.0,30.20,South,180,7.0,16.0,100,0.00,,,0.00,,2013-05-12 19:21:00,
2013-05-12 12:31:00,60.0,60.0,30.21,South,178,8.0,17.0,100,0.00,,,0.00,,2013-05-12 19:31:00,
2013-05-12 12:42:00,59.0,59.0,30.21,South,173,7.0,15.0,100,0.00,,,0.00,,2013-05-12 19:42:00,
2013-05-12 12:52:00,59.0,59.0,30.21,South,173,7.0,15.0,100,0.00,,,0.00,,2013-05-12 19:52:00,
2013-05-12 13:02:00,60.0,60.0,30.22,SSW,200,3.0,16.0,100,0.00,,,0.00,,2013-05-12 20:02:00,
2013-05-12 13:11:00,60.0,60.0,30.22,SSW,200,3.0,16.0,100,0.00,,,0.00,,2013-05-12 20:11:00,
2013-05-12 13:21:00,59.0,59.0,30.21,SE,131,6.0,13.0,100,0.00,,,0.00,,2013-05-12 20:21:00,
2013-05-12 13:32:00,58.0,58.0,30.21,South,190,8.0,15.0,100,0.00,,,0.00,,2013-05-12 20:32:00,
2013-05-12 13:42:00,58.0,58.0,30.21,South,190,8.0,15.0,100,0.00,,,0.00,,2013-05-12 20:42:00,
2013-05-12 13:51:00,59.0,59.0,30.21,SW,222,7.0,15.0,100,0.00,,,0.00,,2013-05-12 20:51:00,
2013-05-12 14:01:00,59.0,59.0,30.21,SSW,205,5.0,15.0,100,0.00,,,0.00,,2013-05-12 21:01:00,
2013-05-12 14:11:00,59.0,59.0,30.21,SSW,205,5.0,15.0,100,0.00,,,0.00,,2013-05-12 21:11:00,
2013-05-12 14:21:00,59.0,59.0,30.21,SSW,205,5.0,15.0,100,0.00,,,0.00,,2013-05-12 21:21:00,
2013-05-12 14:32:00,58.0,58.0,30.22,South,177,9.0,13.0,100,0.00,,,0.00,,2013-05-12 21:32:00,
2013-05-12 14:42:00,58.0,58.0,30.22,South,177,9.0,13.0,100,0.00,,,0.00,,2013-05-12 21:42:00,
2013-05-12 14:52:00,58.0,58.0,30.22,SW,225,9.0,14.0,100,0.00,,,0.00,,2013-05-12 21:52:00,
2013-05-12 15:02:00,58.0,58.0,30.22,SSE,165,5.0,14.0,100,0.00,,,0.00,,2013-05-12 22:02:00,
2013-05-12 15:12:00,58.0,58.0,30.22,SSE,165,5.0,14.0,100,0.00,,,0.00,,2013-05-12 22:12:00,
2013-05-12 15:22:00,58.0,58.0,30.22,SSE,165,5.0,14.0,100,0.00,,,0.00,,2013-05-12 22:22:00,
2013-05-12 15:32:00,58.0,58.0,30.22,SSW,194,10.0,18.0,100,0.00,,,0.00,,2013-05-12 22:32:00,
2013-05-12 15:42:00,58.0,58.0,30.22,SSW,194,10.0,18.0,100,0.00,,,0.00,,2013-05-12 22:42:00,
2013-05-12 15:52:00,58.0,58.0,30.21,South,176,9.0,15.0,100,0.00,,,0.00,,2013-05-12 22:52:00,
2013-05-12 16:02:00,57.0,57.0,30.21,South,170,8.0,14.0,100,0.00,,,0.00,,2013-05-12 23:02:00,
2013-05-12 16:11:00,57.0,57.0,30.21,South,170,8.0,14.0,100,0.00,,,0.00,,2013-05-12 23:11:00,
2013-05-12 16:22:00,57.0,56.0,30.21,SE,146,9.0,15.0,96,0.01,,,0.01,,2013-05-12 23:22:00,
2013-05-12 16:32:00,57.0,54.0,30.21,SSE,161,10.0,17.0,90,0.01,,,0.01,,2013-05-12 23:32:00,
2013-05-12 16:42:00,57.0,54.0,30.21,SSE,161,10.0,17.0,90,0.01,,,0.01,,2013-05-12 23:42:00,
2013-05-12 16:51:00,57.0,54.0,30.19,SSE,162,10.0,13.0,90,0.01,,,0.01,,2013-05-12 23:51:00,
2013-05-12 17:01:00,57.0,53.0,30.19,SSE,157,10.0,16.0,86,0.02,,,0.02,,2013-05-13 00:01:00,
2013-05-12 17:11:00,57.0,53.0,30.19,SSE,157,10.0,16.0,86,0.02,,,0.02,,2013-05-13 00:11:00,
2013-05-12 17:21:00,56.0,50.0,30.19,South,186,10.0,17.0,79,0.01,,,0.02,,2013-05-13 00:21:00,
2013-05-12 17:32:00,57.0,50.0,30.19,SSE,154,8.0,16.0,77,0.01,,,0.02,,2013-05-13 00:32:00,
2013-05-12 17:41:00,57.0,50.0,30.19,SSE,154,8.0,16.0,77,0.01,,,0.02,,2013-05-13 00:41:00,
2013-05-12 17:51:00,57.0,49.0,30.18,SSE,159,8.0,16.0,74,0.01,,,0.02,,2013-05-13 00:51:00,
2013-05-12 18:01:00,57.0,50.0,30.18,SSE,158,10.0,16.0,76,0.00,,,0.02,,2013-05-13 01:01:00,
2013-05-12 18:11:00,57.0,50.0,30.18,SSE,158,10.0,16.0,76,0.00,,,0.02,,2013-05-13 01:11:00,
2013-05-12 18:21:00,57.0,50.0,30.18,SSE,167,8.0,15.0,77,0.00,,,0.02,,2013-05-13 01:21:00,
2013-05-12 18:31:00,57.0,50.0,30.17,South,173,7.0,15.0,78,0.00,,,0.02,,2013-05-13 01:31:00,
2013-05-12 18:41:00,57.0,50.0,30.17,South,173,7.0,15.0,78,0.00,,,0.02,,2013-05-13 01:41:00,
2013-05-12 18:52:00,57.0,51.0,30.16,SSE,168,8.0,14.0,79,0.00,,,0.02,,2013-05-13 01:52:00,
2013-05-12 19:01:00,57.0,51.0,30.16,South,170,5.0,12.0,79,0.00,,,0.02,,2013-05-13 02:01:00,
2013-05-12 19:11:00,57.0,51.0,30.16,South,170,5.0,12.0,79,0.00,,,0.02,,2013-05-13 02:11:00,
2013-05-12 19:21:00,57.0,50.0,30.15,South,184,9.0,15.0,76,0.00,,,0.02,,2013-05-13 02:21:00,
2013-05-12 19:31:00,56.0,44.0,30.15,SSE,163,11.0,16.0,64,0.00,,,0.02,,2013-05-13 02:31:00,
2013-05-12 19:51:00,56.0,43.0,30.15,South,188,10.0,16.0,61,0.01,,,0.03,,2013-05-13 02:51:00,
2013-05-12 20:01:00,56.0,44.0,30.15,SSE,147,8.0,14.0,63,0.01,,,0.03,,2013-05-13 03:01:00,
2013-05-12 20:21:00,56.0,44.0,30.14,South,180,9.0,13.0,63,0.01,,,0.03,,2013-05-13 03:21:00,
2013-05-12 20:32:00,56.0,43.0,30.15,SE,143,6.0,12.0,62,0.01,,,0.03,,2013-05-13 03:32:00,
2013-05-12 20:52:00,56.0,43.0,30.15,South,175,4.0,14.0,62,0.00,,,0.03,,2013-05-13 03:52:00,
2013-05-12 21:02:00,56.0,43.0,30.15,South,171,6.0,12.0,61,0.01,,,0.04,,2013-05-13 04:02:00,
2013-05-12 21:52:00,56.0,41.0,30.15,South,169,8.0,13.0,57,0.00,,,0.04,,2013-05-13 04:52:00,
2013-05-12 22:32:00,55.0,39.0,30.16,SSW,192,7.0,13.0,54,0.00,,,0.04,,2013-05-13 05:32:00,
2013-05-12 22:51:00,55.0,37.0,30.16,South,171,9.0,15.0,51,0.00,,,0.04,,2013-05-13 05:51:00,
2013-05-12 23:01:00,55.0,37.0,30.16,SSE,151,8.0,15.0,50,0.00,,,0.04,,2013-05-13 06:01:00,
2013-05-12 23:21:00,55.0,37.0,30.16,SE,144,10.0,15.0,50,0.00,,,0.04,,2013-05-13 06:21:00,
2013-05-12 23:31:00,55.0,37.0,30.16,SSE,159,9.0,15.0,51,0.00,,,0.04,,2013-05-13 06:31:00,
2013-05-12 23:42:00,55.0,37.0,30.16,SSW,198,10.0,15.0,50,0.00,,,0.04,,2013-05-13 06:42:00,